Sunday, December 16, 2018, 12:12 PM CST
Back to Local

KBTR, Baton Rouge Metro Ryan Field

Location: Baton Rouge, LA, United States Lat: 30.533
Local Time: 12:12 PM CST (18:12 GMT) Lon: -91.15
Time Zone: US/Central Elev: 68 ft

Show me the last for .
Show Decoded

2018-12-16 11:53 METAR KBTR 161753Z 03005KT 10SM OVC016 12/08 A3029 RMK AO2 SLP255 T01170078
                 10117 20094 58007 =
2018-12-16 10:53 METAR KBTR 161653Z 04009KT 10SM OVC017 11/08 A3029 RMK AO2 PRESFR SLP255
                 T01110078 =
2018-12-16 09:53 METAR KBTR 161553Z 03008KT 10SM OVC012 11/07 A3032 RMK AO2 SLP264 T01060072 =
2018-12-16 08:53 METAR KBTR 161453Z 01004KT 10SM OVC018 10/07 A3031 RMK AO2 SLP261 T01000072
                 53015 =
2018-12-16 07:53 METAR KBTR 161353Z 33005KT 10SM OVC014 10/07 A3029 RMK AO2 SLP255 T01000072 =
2018-12-16 06:53 METAR KBTR 161253Z 31003KT 10SM OVC014 09/08 A3026 RMK AO2 SLP247 T00940078 =
2018-12-16 06:49 METAR KBTR 161249Z 32005KT 10SM OVC014 09/08 A3026 RMK AO2 =
2018-12-16 05:53 METAR KBTR 161153Z 00000KT 10SM OVC020 10/08 A3024 RMK AO2 SLP240 T01000083
                 10100 20089 51014 =
2018-12-16 04:53 METAR KBTR 161053Z AUTO 00000KT 10SM OVC019 09/08 A3023 RMK AO2 SLP236 T00940083
                 =
2018-12-16 03:53 METAR KBTR 160953Z AUTO 27004KT 10SM OVC025 09/08 A3022 RMK AO2 SLP232 T00940083
                 =
2018-12-16 03:36 METAR KBTR 160936Z AUTO 28003KT 10SM OVC027 09/08 A3021 RMK AO2 T00940083 =
2018-12-16 02:53 METAR KBTR 160853Z AUTO 28003KT 10SM FEW011 OVC031 09/08 A3020 RMK AO2 SLP226
                 T00890083 53001 =
2018-12-16 02:37 METAR KBTR 160837Z AUTO 00000KT 10SM FEW012 SCT026 OVC032 09/08 A3019 RMK AO2
                 T00890078 =
2018-12-16 01:53 METAR KBTR 160753Z AUTO 00000KT 10SM OVC028 09/08 A3019 RMK AO2 SLP222 T00940083
                 =
2018-12-16 00:53 METAR KBTR 160653Z AUTO 30003KT 10SM OVC026 09/08 A3019 RMK AO2 SLP224 T00940078
                 =
2018-12-16 00:00 METAR KBTR 160600Z AUTO 27003KT 10SM OVC025 09/08 A3020 =
2018-12-15 23:53 METAR KBTR 160553Z 00000KT 10SM BKN012 OVC029 09/08 A3020 RMK AO2 SLP225
                 T00940083 10100 20094 401060089 53004 =
2018-12-15 22:53 METAR KBTR 160453Z 32005KT 10SM BKN014 OVC029 10/08 A3019 RMK AO2 SLP224
                 T01000083 =
2018-12-15 22:38 METAR KBTR 160438Z 33004KT 10SM OVC014 10/08 A3019 =
2018-12-15 22:17 METAR KBTR 160417Z 32004KT 10SM OVC015 10/08 A3019 =
2018-12-15 21:53 METAR KBTR 160353Z 31005KT 10SM OVC013 10/08 A3019 RMK AO2 SLP222 T01000083 =
2018-12-15 21:51 METAR KBTR 160351Z 30006KT 10SM OVC013 10/08 A3019 RMK AO2 =
2018-12-15 20:53 METAR KBTR 160253Z 30004KT 10SM FEW016 BKN026 OVC034 09/08 A3017 RMK AO2 SLP216
                 T00940083 51015 =
2018-12-15 20:51 METAR KBTR 160251Z 29004KT 10SM FEW016 BKN026 OVC034 09/08 A3017 RMK AO2 =
2018-12-15 19:53 METAR KBTR 160153Z 30004KT 10SM OVC030 09/08 A3015 RMK AO2 SLP209 T00940083 =
2018-12-15 18:53 METAR KBTR 160053Z 29003KT 10SM SCT017 OVC032 09/08 A3013 RMK AO2 SLP201
                 T00940083 =
2018-12-15 17:53 METAR KBTR 152353Z 30005KT 9SM SCT014 BKN020 OVC030 09/08 A3011 RMK AO2 SLP195
                 T00940083 10106 20094 53021 =
2018-12-15 17:38 METAR KBTR 152338Z 31005KT 8SM BKN014 OVC023 10/08 A3011 RMK AO2 T01000083 =
2018-12-15 16:53 METAR KBTR 152253Z 29005KT 10SM OVC023 10/08 A3009 RMK AO2 SLP187 T01000078 =
2018-12-15 15:53 METAR KBTR 152153Z 30007KT 10SM OVC018 11/07 A3007 RMK AO2 SLP180 T01060072 =
2018-12-15 15:21 METAR KBTR 152121Z 30006KT 10SM BKN015 OVC022 11/08 A3006 RMK AO2 T01060078 =
2018-12-15 14:53 METAR KBTR 152053Z 30003KT 10SM OVC012 11/08 A3005 RMK AO2 SLP175 T01060078
                 56005 =
2018-12-15 13:53 METAR KBTR 151953Z 28006KT 10SM OVC012 11/08 A3005 RMK AO2 SLP175 T01060083 =
2018-12-15 12:53 METAR KBTR 151853Z COR 25006KT 10SM OVC012 11/08 A3005 RMK AO2 SLP174 T01060083
                 =

Support USWX by starting your Amazon purchase here.